createdAt,value
2023-02-01T00:00:57.089Z,2.25
2023-02-01T00:03:25.163Z,-0.22
2023-02-01T00:05:59.795Z,2.22
2023-02-01T00:08:27.830Z,2.17
2023-02-01T00:11:05.195Z,2.11
2023-02-01T00:13:35.253Z,2.36
2023-02-01T00:16:07.743Z,2.38
2023-02-01T00:18:36.331Z,2.25
2023-02-01T00:21:04.474Z,2.14
2023-02-01T00:23:34.547Z,2.23
2023-02-01T00:26:05.714Z,2.26
2023-02-01T00:28:34.447Z,2.34
2023-02-01T00:31:03.886Z,2.42
2023-02-01T00:33:33.737Z,2.31
2023-02-01T00:36:03.748Z,2.40
2023-02-01T00:38:32.701Z,2.42
2023-02-01T00:41:06.382Z,2.30
2023-02-01T00:43:34.935Z,2.28
2023-02-01T00:46:03.384Z,2.31
2023-02-01T00:48:31.948Z,2.25
2023-02-01T00:51:01.958Z,2.23
2023-02-01T00:53:30.210Z,2.24
2023-02-01T00:55:58.796Z,2.08
2023-02-01T00:58:28.894Z,2.09
2023-02-01T01:01:04.639Z,1.95
2023-02-01T01:03:34.796Z,2.09
2023-02-01T01:06:05.484Z,2.22
2023-02-01T01:08:33.895Z,2.22
2023-02-01T01:11:06.978Z,2.14
2023-02-01T01:13:36.962Z,2.13
2023-02-01T01:16:06.236Z,1.86
2023-02-01T01:18:35.339Z,2.02
2023-02-01T01:21:04.288Z,1.98
2023-02-01T01:23:32.372Z,2.09
2023-02-01T01:26:00.848Z,2.22
2023-02-01T01:28:28.895Z,1.97
2023-02-01T01:30:58.208Z,1.93
2023-02-01T01:33:26.357Z,1.85
2023-02-01T01:35:54.328Z,1.57
2023-02-01T01:38:22.333Z,1.99
2023-02-01T01:40:51.699Z,1.83
2023-02-01T01:43:23.410Z,1.73
2023-02-01T01:45:52.345Z,2.01
2023-02-01T01:48:29.021Z,2.00
2023-02-01T01:50:59.860Z,1.85
2023-02-01T01:53:33.660Z,1.96
2023-02-01T01:56:03.151Z,1.70
2023-02-01T01:58:34.496Z,1.57
2023-02-01T02:01:02.989Z,1.47
2023-02-01T02:03:35.964Z,1.46
2023-02-01T02:06:08.809Z,1.57
2023-02-01T02:08:36.813Z,1.51
2023-02-01T02:11:04.842Z,1.52
2023-02-01T02:13:36.267Z,1.50
2023-02-01T02:16:20.794Z,1.51
2023-02-01T02:19:02.863Z,1.41
2023-02-01T02:21:51.748Z,1.62
2023-02-01T02:24:57.783Z,1.64
2023-02-01T02:27:37.138Z,1.49
2023-02-01T02:30:38.417Z,1.56
2023-02-01T02:33:54.182Z,1.55
2023-02-01T02:36:35.316Z,1.51
2023-02-01T02:39:09.946Z,1.30
2023-02-01T02:42:07.605Z,1.35
2023-02-01T02:45:01.984Z,1.36
2023-02-01T02:47:38.506Z,1.34
2023-02-01T02:50:35.287Z,1.30
2023-02-01T02:53:27.051Z,1.21
2023-02-01T02:56:13.136Z,1.18
2023-02-01T02:58:58.607Z,1.35
2023-02-01T03:01:44.520Z,1.46
2023-02-01T03:04:18.486Z,1.54
2023-02-01T03:06:46.743Z,1.41
2023-02-01T03:09:22.862Z,1.30
2023-02-01T03:12:14.242Z,1.35
2023-02-01T03:14:46.130Z,1.38
2023-02-01T03:17:16.673Z,1.35
2023-02-01T03:19:50.448Z,1.39
2023-02-01T03:22:22.405Z,1.08
2023-02-01T03:24:55.764Z,1.34
2023-02-01T03:27:29.691Z,1.26
2023-02-01T03:30:03.728Z,1.40
2023-02-01T03:32:52.846Z,1.18
2023-02-01T03:35:27.670Z,1.30
2023-02-01T03:38:00.476Z,1.13
2023-02-01T03:40:35.200Z,1.31
2023-02-01T03:43:07.123Z,1.30
2023-02-01T03:45:40.266Z,1.18
2023-02-01T03:48:09.763Z,1.24
2023-02-01T03:50:40.596Z,0.93
2023-02-01T03:53:13.328Z,0.96
2023-02-01T03:55:43.264Z,1.12
2023-02-01T03:58:15.640Z,1.05
2023-02-01T04:00:46.881Z,1.06
2023-02-01T04:03:14.910Z,1.07
2023-02-01T04:05:42.834Z,0.93
2023-02-01T04:08:10.861Z,1.22
2023-02-01T04:10:38.862Z,1.30
2023-02-01T04:13:08.542Z,1.19
2023-02-01T04:15:36.597Z,1.29
2023-02-01T04:18:04.560Z,1.26
2023-02-01T04:20:32.565Z,1.24
2023-02-01T04:23:00.662Z,1.24
2023-02-01T04:25:28.676Z,1.27
2023-02-01T04:27:56.689Z,1.35
2023-02-01T04:30:26.246Z,1.43
2023-02-01T04:32:54.358Z,1.53
2023-02-01T04:35:23.032Z,1.58
2023-02-01T04:37:51.008Z,1.47
2023-02-01T04:40:19.482Z,1.30
2023-02-01T04:42:47.418Z,1.26
2023-02-01T04:45:15.456Z,1.40
2023-02-01T04:47:44.784Z,1.26
2023-02-01T04:50:13.219Z,1.32
2023-02-01T04:52:41.705Z,1.37
2023-02-01T04:55:10.476Z,1.28
2023-02-01T04:57:39.782Z,1.40
2023-02-01T05:00:09.754Z,1.15
2023-02-01T05:02:38.820Z,1.36
2023-02-01T05:05:08.981Z,1.20
2023-02-01T05:07:36.962Z,1.06
2023-02-01T05:10:05.395Z,1.18
2023-02-01T05:12:50.966Z,1.46
2023-02-01T05:15:18.880Z,1.29
2023-02-01T05:17:46.786Z,1.52
2023-02-01T05:20:16.285Z,1.43
2023-02-01T05:22:44.340Z,1.62
2023-02-01T05:25:12.214Z,1.51
2023-02-01T05:27:40.190Z,1.61
2023-02-01T05:30:10.539Z,1.67
2023-02-01T05:32:38.601Z,1.65
2023-02-01T05:35:07.738Z,1.61
2023-02-01T05:37:37.066Z,1.58
2023-02-01T05:40:05.847Z,1.69
2023-02-01T05:42:33.843Z,1.75
2023-02-01T05:45:01.911Z,1.58
2023-02-01T05:47:29.848Z,1.65
2023-02-01T05:49:57.806Z,1.82
2023-02-01T05:52:25.838Z,1.79
2023-02-01T05:54:55.320Z,1.95
2023-02-01T05:57:23.533Z,2.01
2023-02-01T05:59:51.491Z,2.11
2023-02-01T06:02:19.592Z,2.10
2023-02-01T06:04:47.639Z,2.13
2023-02-01T06:07:15.673Z,2.20
2023-02-01T06:09:43.621Z,2.33
2023-02-01T06:12:13.405Z,2.36
2023-02-01T06:14:41.944Z,2.35
2023-02-01T06:17:09.974Z,2.34
2023-02-01T06:19:37.819Z,2.23
2023-02-01T06:22:07.790Z,2.44
2023-02-01T06:24:35.798Z,2.45
2023-02-01T06:27:03.715Z,2.72
2023-02-01T06:29:33.024Z,2.89
2023-02-01T06:32:01.145Z,2.94
2023-02-01T06:34:29.261Z,3.09
2023-02-01T06:36:57.334Z,3.13
2023-02-01T06:39:25.332Z,3.22
2023-02-01T06:41:53.260Z,3.45
2023-02-01T06:44:21.913Z,3.62
2023-02-01T06:46:51.272Z,3.46
2023-02-01T06:49:19.473Z,3.81
2023-02-01T06:51:47.477Z,3.72
2023-02-01T06:54:15.919Z,3.73
2023-02-01T06:56:43.831Z,3.76
2023-02-01T06:59:14.580Z,3.72
2023-02-01T07:01:44.071Z,3.68
2023-02-01T07:04:14.354Z,3.68
2023-02-01T07:06:42.425Z,3.53
2023-02-01T07:09:10.829Z,3.31
2023-02-01T07:11:42.068Z,3.43
2023-02-01T07:14:10.257Z,3.36
2023-02-01T07:16:38.468Z,3.30
2023-02-01T07:19:07.133Z,3.33
2023-02-01T07:21:36.407Z,3.46
2023-02-01T07:24:04.700Z,3.34
2023-02-01T07:26:32.941Z,3.49
2023-02-01T07:29:00.945Z,3.58
2023-02-01T07:31:30.107Z,3.60
2023-02-01T07:33:59.318Z,3.57
2023-02-01T07:36:27.281Z,3.65
2023-02-01T07:38:57.088Z,3.62
2023-02-01T07:41:25.222Z,3.63
2023-02-01T07:43:55.356Z,3.64
2023-02-01T07:46:23.615Z,3.75
2023-02-01T07:48:51.587Z,3.87
2023-02-01T07:51:20.175Z,3.84
2023-02-01T07:53:48.332Z,3.86
2023-02-01T07:56:19.237Z,3.92
2023-02-01T07:58:50.120Z,4.13
2023-02-01T08:01:22.056Z,4.04
2023-02-01T08:03:51.576Z,4.26
2023-02-01T08:06:20.605Z,4.28
2023-02-01T08:08:49.104Z,4.47
2023-02-01T08:11:19.218Z,4.52
2023-02-01T08:13:47.440Z,4.53
2023-02-01T08:16:17.475Z,4.54
2023-02-01T08:18:46.176Z,4.56
2023-02-01T08:21:16.629Z,4.26
2023-02-01T08:23:45.171Z,4.19
2023-02-01T08:26:15.401Z,4.32
2023-02-01T08:28:47.575Z,4.32
2023-02-01T08:31:18.273Z,4.51
2023-02-01T08:33:50.808Z,4.70
2023-02-01T08:36:19.197Z,4.69
2023-02-01T08:38:47.332Z,4.70
2023-02-01T08:41:16.851Z,4.82
2023-02-01T08:43:46.794Z,4.63
2023-02-01T08:46:15.028Z,4.65
2023-02-01T08:48:43.304Z,4.36
2023-02-01T08:51:13.734Z,4.58
2023-02-01T08:53:42.631Z,4.48
2023-02-01T08:56:11.802Z,4.44
2023-02-01T08:58:40.090Z,4.83
2023-02-01T09:01:11.609Z,5.15
2023-02-01T09:03:39.721Z,5.27
2023-02-01T09:06:09.715Z,5.51
2023-02-01T09:08:38.674Z,5.74
2023-02-01T09:11:09.029Z,6.52
2023-02-01T09:13:37.434Z,7.22
2023-02-01T09:16:06.054Z,8.36
2023-02-01T09:18:35.440Z,8.73
2023-02-01T09:21:06.448Z,9.18
2023-02-01T09:23:34.878Z,8.85
2023-02-01T09:26:03.450Z,8.81
2023-02-01T09:28:31.738Z,8.46
2023-02-01T09:31:00.390Z,8.19
2023-02-01T09:33:29.358Z,8.29
2023-02-01T09:36:00.551Z,8.33
2023-02-01T09:38:30.435Z,7.60
2023-02-01T09:41:00.122Z,7.71
2023-02-01T09:43:41.303Z,7.95
2023-02-01T09:46:23.963Z,7.67
2023-02-01T09:48:56.334Z,7.70
2023-02-01T09:51:29.760Z,7.72
2023-02-01T09:54:05.451Z,8.23
2023-02-01T09:56:41.861Z,8.31
2023-02-01T09:59:25.687Z,8.18
2023-02-01T10:01:53.802Z,8.31
2023-02-01T10:04:21.995Z,7.81
2023-02-01T10:07:13.048Z,8.10
2023-02-01T10:09:52.827Z,7.62
2023-02-01T10:12:39.249Z,7.57
2023-02-01T10:15:22.024Z,7.34
2023-02-01T10:18:12.141Z,7.45
2023-02-01T10:20:54.786Z,7.46
2023-02-01T10:23:44.391Z,7.15
2023-02-01T10:26:20.731Z,7.09
2023-02-01T10:28:52.300Z,7.09
2023-02-01T10:31:23.329Z,7.15
2023-02-01T10:33:54.623Z,7.30
2023-02-01T10:36:25.370Z,7.32
2023-02-01T10:38:54.995Z,7.37
2023-02-01T10:41:25.409Z,7.47
2023-02-01T10:43:57.281Z,7.56
2023-02-01T10:46:25.351Z,7.64
2023-02-01T10:48:56.604Z,7.60
2023-02-01T10:51:28.921Z,7.65
2023-02-01T10:54:03.820Z,7.57
2023-02-01T10:56:32.514Z,7.63
2023-02-01T10:59:04.224Z,7.89
2023-02-01T11:01:36.481Z,7.97
2023-02-01T11:04:05.806Z,8.09
2023-02-01T11:06:35.931Z,7.93
2023-02-01T11:09:17.505Z,8.01
2023-02-01T11:12:01.221Z,8.03
2023-02-01T11:14:36.719Z,7.86
2023-02-01T11:17:20.069Z,7.84
2023-02-01T11:19:48.690Z,7.77
2023-02-01T11:22:17.314Z,7.90
2023-02-01T11:24:49.277Z,7.92
2023-02-01T11:27:27.698Z,7.78
2023-02-01T11:30:00.695Z,7.70
2023-02-01T11:32:29.647Z,7.63
2023-02-01T11:35:01.657Z,7.79
2023-02-01T11:37:32.567Z,7.88
2023-02-01T11:40:04.889Z,7.91
2023-02-01T11:42:33.057Z,7.99
2023-02-01T11:45:20.362Z,8.03
2023-02-01T11:47:48.339Z,8.06
2023-02-01T11:50:19.484Z,8.03
2023-02-01T11:53:02.832Z,8.02
2023-02-01T11:55:46.497Z,8.08
2023-02-01T11:58:50.745Z,8.08
2023-02-01T12:01:42.633Z,7.89
2023-02-01T12:04:40.255Z,8.01
2023-02-01T12:07:16.786Z,7.98
2023-02-01T12:09:58.083Z,8.08
2023-02-01T12:12:33.418Z,8.08
2023-02-01T12:15:48.469Z,8.12
2023-02-01T12:18:56.539Z,8.12
2023-02-01T12:21:48.561Z,7.91
2023-02-01T12:24:48.584Z,7.72
2023-02-01T12:27:42.546Z,7.92
2023-02-01T12:30:33.413Z,7.91
2023-02-01T12:33:13.776Z,7.76
2023-02-01T12:35:55.304Z,8.03
2023-02-01T12:38:45.289Z,7.97
2023-02-01T12:41:33.830Z,8.21
2023-02-01T12:44:07.873Z,8.32
2023-02-01T12:46:42.380Z,8.36
2023-02-01T12:49:17.878Z,8.43
2023-02-01T12:51:51.329Z,8.42
2023-02-01T12:54:25.001Z,8.44
2023-02-01T12:56:57.720Z,8.22
2023-02-01T12:59:34.217Z,8.14
2023-02-01T13:02:08.699Z,8.03
2023-02-01T13:04:44.773Z,7.89
2023-02-01T13:07:19.413Z,7.91
2023-02-01T13:09:53.585Z,7.75
2023-02-01T13:12:27.440Z,7.88
2023-02-01T13:15:01.398Z,7.93
2023-02-01T13:17:33.856Z,7.90
2023-02-01T13:20:07.527Z,7.97
2023-02-01T13:22:39.910Z,7.90
2023-02-01T13:25:15.133Z,7.43
2023-02-01T13:27:43.101Z,8.16
2023-02-01T13:30:21.115Z,8.40
2023-02-01T13:33:50.957Z,8.56
2023-02-01T13:36:36.923Z,8.49
2023-02-01T13:39:44.725Z,8.56
2023-02-01T13:42:20.477Z,8.39
2023-02-01T13:44:51.828Z,8.53
2023-02-01T13:47:28.438Z,8.60
2023-02-01T13:49:59.651Z,8.46
2023-02-01T13:52:31.481Z,8.53
2023-02-01T13:55:27.812Z,8.59
2023-02-01T13:58:05.614Z,8.68
2023-02-01T14:00:37.050Z,8.39
2023-02-01T14:03:22.419Z,8.32
2023-02-01T14:06:13.183Z,8.26
2023-02-01T14:08:48.315Z,8.33
2023-02-01T14:11:41.560Z,8.37
2023-02-01T14:14:45.678Z,8.46
2023-02-01T14:17:40.732Z,8.23
2023-02-01T14:20:46.612Z,8.07
2023-02-01T14:23:19.999Z,8.13
2023-02-01T14:25:50.079Z,7.87
2023-02-01T14:28:27.829Z,7.97
2023-02-01T14:30:59.007Z,7.98
2023-02-01T14:33:29.104Z,7.99
2023-02-01T14:36:07.523Z,7.98
2023-02-01T14:38:39.720Z,7.88
2023-02-01T14:41:31.685Z,7.89
2023-02-01T14:44:27.870Z,7.76
2023-02-01T14:47:30.475Z,7.93
2023-02-01T14:50:04.785Z,7.88
2023-02-01T14:52:36.313Z,7.73
2023-02-01T14:55:08.725Z,7.70
2023-02-01T14:57:41.334Z,7.62
2023-02-01T15:00:20.046Z,7.51
2023-02-01T15:02:50.763Z,7.42
2023-02-01T15:05:30.794Z,7.38
2023-02-01T15:08:02.669Z,7.34
2023-02-01T15:10:33.791Z,7.33
2023-02-01T15:13:01.992Z,7.33
2023-02-01T15:15:34.441Z,7.07
2023-02-01T15:18:02.426Z,7.21
2023-02-01T15:20:32.687Z,7.04
2023-02-01T15:23:04.187Z,6.88
2023-02-01T15:25:36.444Z,7.12
2023-02-01T15:28:07.066Z,7.14
2023-02-01T15:30:36.856Z,6.98
2023-02-01T15:33:09.372Z,6.94
2023-02-01T15:35:44.531Z,6.94
2023-02-01T15:38:36.274Z,6.87
2023-02-01T15:41:08.763Z,6.84
2023-02-01T15:43:39.902Z,6.69
2023-02-01T15:46:12.846Z,6.72
2023-02-01T15:48:46.082Z,6.68
2023-02-01T15:51:16.546Z,6.67
2023-02-01T15:53:48.881Z,6.45
2023-02-01T15:56:23.531Z,6.58
2023-02-01T15:58:55.943Z,6.38
2023-02-01T16:01:24.538Z,6.29
2023-02-01T16:04:05.016Z,6.20
2023-02-01T16:06:35.200Z,6.13
2023-02-01T16:09:11.655Z,6.18
2023-02-01T16:11:50.382Z,6.13
2023-02-01T16:14:18.399Z,6.13
2023-02-01T16:16:46.332Z,5.91
2023-02-01T16:19:14.395Z,6.03
2023-02-01T16:21:42.387Z,5.97
2023-02-01T16:24:10.606Z,6.16
2023-02-01T16:26:39.379Z,6.20
2023-02-01T16:29:09.477Z,6.16
2023-02-01T16:31:39.273Z,6.02
2023-02-01T16:34:07.967Z,5.96
2023-02-01T16:36:36.232Z,5.91
2023-02-01T16:39:05.480Z,5.94
2023-02-01T16:41:33.376Z,6.08
2023-02-01T16:44:01.312Z,5.97
2023-02-01T16:46:35.756Z,5.95
2023-02-01T16:49:04.191Z,6.05
2023-02-01T16:51:34.030Z,5.97
2023-02-01T16:54:02.423Z,6.08
2023-02-01T16:56:34.079Z,6.03
2023-02-01T16:59:02.162Z,5.89
2023-02-01T17:01:31.593Z,5.96
2023-02-01T17:03:59.711Z,6.11
2023-02-01T17:06:30.229Z,5.98
2023-02-01T17:09:00.017Z,6.01
2023-02-01T17:11:30.971Z,6.07
2023-02-01T17:13:59.208Z,6.06
2023-02-01T17:16:30.614Z,5.98
2023-02-01T17:19:05.468Z,5.94
2023-02-01T17:21:40.636Z,6.07
2023-02-01T17:24:08.743Z,5.88
2023-02-01T17:26:38.110Z,5.93
2023-02-01T17:29:07.032Z,6.04
2023-02-01T17:31:37.548Z,6.04
2023-02-01T17:34:06.932Z,6.16
2023-02-01T17:36:36.545Z,6.17
2023-02-01T17:39:06.633Z,6.16
2023-02-01T17:41:37.684Z,6.05
2023-02-01T17:44:06.082Z,6.07
2023-02-01T17:46:34.140Z,6.09
2023-02-01T17:49:03.816Z,6.07
2023-02-01T17:51:33.438Z,5.87
2023-02-01T17:54:01.310Z,6.02
2023-02-01T17:56:29.798Z,5.93
2023-02-01T17:58:58.601Z,5.84
2023-02-01T18:01:27.417Z,5.79
2023-02-01T18:03:55.658Z,5.86
2023-02-01T18:06:27.761Z,5.74
2023-02-01T18:08:59.302Z,5.79
2023-02-01T18:11:27.441Z,5.62
2023-02-01T18:13:55.357Z,5.67
2023-02-01T18:16:25.577Z,5.72
2023-02-01T18:18:54.212Z,5.69
2023-02-01T18:21:24.261Z,5.61
2023-02-01T18:23:52.359Z,5.63
2023-02-01T18:26:21.927Z,5.50
2023-02-01T18:28:49.862Z,5.54
2023-02-01T18:31:23.702Z,5.49
2023-02-01T18:33:52.285Z,5.57
2023-02-01T18:36:20.376Z,5.68
2023-02-01T18:38:48.632Z,5.68
2023-02-01T18:41:20.871Z,5.53
2023-02-01T18:43:51.190Z,5.69
2023-02-01T18:46:19.426Z,5.79
2023-02-01T18:48:47.332Z,5.70
2023-02-01T18:51:19.957Z,5.73
2023-02-01T18:53:49.421Z,5.67
2023-02-01T18:56:19.336Z,5.60
2023-02-01T18:58:47.623Z,5.65
2023-02-01T19:01:20.153Z,5.51
2023-02-01T19:03:50.720Z,5.46
2023-02-01T19:06:26.400Z,5.44
2023-02-01T19:08:56.164Z,5.17
2023-02-01T19:11:24.634Z,4.96
2023-02-01T19:13:53.237Z,5.10
2023-02-01T19:16:25.224Z,4.95
2023-02-01T19:18:55.227Z,5.08
2023-02-01T19:21:23.288Z,5.02
2023-02-01T19:23:51.303Z,5.14
2023-02-01T19:26:19.650Z,4.99
2023-02-01T19:28:48.968Z,5.02
2023-02-01T19:31:17.863Z,5.01
2023-02-01T19:33:47.308Z,5.12
2023-02-01T19:36:15.242Z,5.24
2023-02-01T19:38:43.237Z,5.37
2023-02-01T19:41:11.170Z,5.22
2023-02-01T19:43:39.986Z,5.12
2023-02-01T19:46:08.118Z,5.07
2023-02-01T19:48:36.339Z,4.96
2023-02-01T19:51:06.156Z,4.84
2023-02-01T19:53:34.126Z,5.13
2023-02-01T19:56:02.865Z,4.92
2023-02-01T19:58:31.214Z,5.01
2023-02-01T20:00:59.738Z,5.23
2023-02-01T20:03:28.664Z,5.11
2023-02-01T20:05:58.749Z,5.34
2023-02-01T20:08:28.107Z,5.36
2023-02-01T20:10:56.151Z,5.40
2023-02-01T20:13:24.314Z,5.47
2023-02-01T20:15:57.273Z,5.48
2023-02-01T20:18:25.432Z,5.45
2023-02-01T20:20:56.390Z,5.43
2023-02-01T20:23:24.328Z,5.25
2023-02-01T20:25:55.051Z,5.01
2023-02-01T20:28:23.117Z,5.10
2023-02-01T20:30:51.192Z,4.83
2023-02-01T20:33:19.354Z,4.79
2023-02-01T20:35:47.397Z,4.84
2023-02-01T20:38:15.479Z,4.64
2023-02-01T20:40:43.592Z,4.30
2023-02-01T20:43:12.945Z,4.28
2023-02-01T20:45:41.521Z,4.18
2023-02-01T20:48:10.106Z,4.36
2023-02-01T20:50:38.742Z,4.28
2023-02-01T20:53:07.177Z,4.13
2023-02-01T20:55:35.344Z,4.52
2023-02-01T20:58:03.335Z,4.14
2023-02-01T21:00:32.842Z,4.00
2023-02-01T21:03:01.063Z,3.84
2023-02-01T21:05:40.172Z,3.75
2023-02-01T21:08:09.139Z,3.70
2023-02-01T21:10:37.974Z,3.60
2023-02-01T21:13:06.841Z,3.81
2023-02-01T21:15:36.574Z,3.71
2023-02-01T21:18:06.374Z,3.84
2023-02-01T21:20:34.687Z,3.42
2023-02-01T21:23:02.634Z,3.47
2023-02-01T21:25:30.681Z,3.65
2023-02-01T21:27:59.185Z,3.62
2023-02-01T21:30:27.266Z,3.65
2023-02-01T21:32:56.881Z,3.75
2023-02-01T21:35:25.281Z,3.84
2023-02-01T21:37:53.578Z,3.86
2023-02-01T21:40:21.651Z,3.58
2023-02-01T21:42:49.988Z,3.85
2023-02-01T21:45:19.163Z,3.80
2023-02-01T21:47:48.896Z,3.93
2023-02-01T21:50:21.558Z,2.65
2023-02-01T21:52:49.535Z,3.56
2023-02-01T21:55:17.578Z,3.64
2023-02-01T21:57:46.173Z,3.15
2023-02-01T22:00:15.471Z,3.42
2023-02-01T22:02:43.506Z,3.49
2023-02-01T22:05:11.844Z,3.38
2023-02-01T22:07:41.340Z,3.13
2023-02-01T22:10:14.104Z,3.64
2023-02-01T22:12:42.372Z,3.72
2023-02-01T22:15:11.276Z,3.31
2023-02-01T22:17:39.324Z,3.89
2023-02-01T22:20:08.217Z,3.57
2023-02-01T22:22:36.579Z,3.96
2023-02-01T22:25:07.718Z,3.57
2023-02-01T22:28:31.599Z,3.91
2023-02-01T22:30:23.837Z,3.86
2023-02-01T22:32:51.825Z,3.59
2023-02-01T22:35:19.720Z,3.86
2023-02-01T22:37:47.920Z,3.88
2023-02-01T22:40:17.531Z,3.76
2023-02-01T22:42:45.492Z,3.91
2023-02-01T22:45:13.706Z,3.92
2023-02-01T22:47:41.711Z,3.52
2023-02-01T22:50:10.941Z,3.90
2023-02-01T22:52:38.827Z,3.92
2023-02-01T22:55:07.639Z,3.85
2023-02-01T22:57:36.978Z,3.87
2023-02-01T23:00:06.273Z,3.45
2023-02-01T23:02:34.335Z,3.98
2023-02-01T23:05:02.405Z,3.70
2023-02-01T23:07:30.475Z,4.02
2023-02-01T23:09:58.529Z,3.72
2023-02-01T23:12:26.678Z,3.74
2023-02-01T23:15:08.415Z,3.93
2023-02-01T23:17:37.945Z,3.95
2023-02-01T23:20:07.790Z,3.83
2023-02-01T23:22:35.956Z,4.01
2023-02-01T23:25:04.148Z,3.95
2023-02-01T23:27:32.142Z,3.98
2023-02-01T23:30:01.590Z,3.21
2023-02-01T23:32:29.585Z,3.78
2023-02-01T23:34:57.754Z,4.02
2023-02-01T23:37:25.849Z,3.61
2023-02-01T23:39:54.420Z,3.87
2023-02-01T23:42:22.388Z,3.70
2023-02-01T23:44:49.406Z,4.11
2023-02-01T23:47:18.940Z,4.16
2023-02-01T23:49:47.235Z,3.82
2023-02-01T23:52:15.349Z,3.61
2023-02-01T23:54:43.568Z,3.72
2023-02-01T23:57:11.599Z,3.34
2023-02-01T23:59:40.561Z,3.79
